This is the latest recevied weather packets stored in our database for station/object WC4PEM-12. If no packets are shown the sender has not sent any weather packets the latest 10 day(s).
| Time | Temp. | Humidity | Pressure | Rain* | Wind** | Luminosity | Snow |
|---|---|---|---|---|---|---|---|
| 1777760046 | 22.22° C | 90% | 1011.5 hPa | 0.76 mm | - | - | - |
| 1777759984 | 22.22° C | 90% | 1011.5 hPa | 0.76 mm | - | - | - |
| 1777759684 | 22.22° C | 89% | 1011.5 hPa | 0.51 mm | - | - | - |
| 1777759384 | 22.78° C | 87% | 1011.5 hPa | 0 mm | - | - | - |
| 1777759084 | 23.33° C | 85% | 1011.6 hPa | 0 mm | - | - | - |
| 1777758784 | 23.89° C | 82% | 1011.4 hPa | 0 mm | - | - | - |
| 1777758760 | 24.44° C | 78% | 1011.4 hPa | 0 mm | - | - | - |
| 1777758484 | 24.44° C | 78% | 1011.4 hPa | 0 mm | - | - | - |
| 1777758184 | 24.44° C | 76% | 1011.2 hPa | 0 mm | - | - | - |
| 1777758030 | 24.44° C | 75% | 1011.2 hPa | 0 mm | - | - | - |
| 1777757884 | 24.44° C | 75% | 1011.2 hPa | 0 mm | - | - | - |
| 1777757741 | 24.44° C | 75% | 1011.2 hPa | 0 mm | - | - | - |
| 1777757584 | 24.44° C | 75% | 1011.2 hPa | 0 mm | - | - | - |
| 1777757323 | 25° C | 74% | 1011 hPa | 0 mm | - | - | - |
| 1777757284 | 25° C | 74% | 1011 hPa | 0 mm | - | - | - |
| 1777756984 | 25° C | 72% | 1010.7 hPa | 0 mm | - | - | - |
| 1777756829 | 25° C | 71% | 1010.8 hPa | 0 mm | - | - | - |
| 1777756684 | 25° C | 71% | 1010.8 hPa | 0 mm | - | - | - |
| 1777756384 | 25.56° C | 70% | 1010.9 hPa | 0 mm | - | - | - |
| 1777756084 | 25.56° C | 68% | 1010.9 hPa | 0 mm | - | - | - |
| 1777755818 | 28.33° C | 66% | 1010.3 hPa | 0 mm | - | - | - |
| 1777755784 | 26.67° C | 66% | 1010.6 hPa | 0 mm | - | - | - |
| 1777755565 | 27.78° C | 64% | 1010.6 hPa | 0 mm | - | - | - |
| 1777755484 | 27.78° C | 64% | 1010.6 hPa | 0 mm | - | - | - |
| 1777755184 | 28.33° C | 68% | 1010.4 hPa | 0 mm | - | - | - |
* Rain latest hour (hover to see other rain measurements)
** Current wind speed in m/s (hover to see current wind gust speed)